createdAt,value
2018-03-24T00:01:08.005Z,84.97
2018-03-24T00:03:34.261Z,85.36
2018-03-24T00:06:00.530Z,84.93
2018-03-24T00:08:26.898Z,84.40
2018-03-24T00:10:52.910Z,84.20
2018-03-24T00:13:18.809Z,84.37
2018-03-24T00:15:47.389Z,84.43
2018-03-24T00:18:13.248Z,84.25
2018-03-24T00:20:39.268Z,84.21
2018-03-24T00:23:05.142Z,83.80
2018-03-24T00:25:31.001Z,83.87
2018-03-24T00:27:56.920Z,82.10
2018-03-24T00:30:22.768Z,83.33
2018-03-24T00:32:48.617Z,83.58
2018-03-24T00:35:14.526Z,83.77
2018-03-24T00:37:40.413Z,82.82
2018-03-24T00:40:06.276Z,82.81
2018-03-24T00:42:32.172Z,82.92
2018-03-24T00:44:58.020Z,82.94
2018-03-24T00:47:23.872Z,82.78
2018-03-24T00:49:49.768Z,82.64
2018-03-24T00:52:15.626Z,83.21
2018-03-24T00:54:41.468Z,82.93
2018-03-24T00:57:07.377Z,83.09
2018-03-24T00:59:33.227Z,83.39
2018-03-24T01:01:59.081Z,83.15
2018-03-24T01:04:25.305Z,82.69
2018-03-24T01:06:51.193Z,82.07
2018-03-24T01:09:17.146Z,82.19
2018-03-24T01:11:43.032Z,82.50
2018-03-24T01:14:08.889Z,82.16
2018-03-24T01:16:34.750Z,82.79
2018-03-24T01:19:00.733Z,82.65
2018-03-24T01:21:26.688Z,82.70
2018-03-24T01:23:52.527Z,83.48
2018-03-24T01:26:18.422Z,83.84
2018-03-24T01:28:44.277Z,83.36
2018-03-24T01:31:10.206Z,83.26
2018-03-24T01:33:36.404Z,83.43
2018-03-24T01:36:02.272Z,83.30
2018-03-24T01:38:28.221Z,83.26
2018-03-24T01:40:54.126Z,83.30
2018-03-24T01:43:20.048Z,83.51
2018-03-24T01:45:45.892Z,83.63
2018-03-24T01:48:11.800Z,82.96
2018-03-24T01:50:37.658Z,83.76
2018-03-24T01:53:03.516Z,83.97
2018-03-24T01:55:29.504Z,83.97
2018-03-24T01:57:55.356Z,84.12
2018-03-24T02:00:21.223Z,83.92
2018-03-24T02:02:47.910Z,83.52
2018-03-24T02:05:13.794Z,82.97
2018-03-24T02:07:39.721Z,83.16
2018-03-24T02:10:05.626Z,83.91
2018-03-24T02:12:31.483Z,83.69
2018-03-24T02:14:57.329Z,83.70
2018-03-24T02:17:23.306Z,83.32
2018-03-24T02:19:49.260Z,83.39
2018-03-24T02:22:15.104Z,83.62
2018-03-24T02:24:42.480Z,83.69
2018-03-24T02:27:08.544Z,83.83
2018-03-24T02:29:34.393Z,84.08
2018-03-24T02:32:00.429Z,84.07
2018-03-24T02:34:26.302Z,84.18
2018-03-24T02:36:52.168Z,84.04
2018-03-24T02:39:18.225Z,83.84
2018-03-24T02:41:44.086Z,84.45
2018-03-24T02:44:10.035Z,84.45
2018-03-24T02:46:36.026Z,84.81
2018-03-24T02:49:01.889Z,84.42
2018-03-24T02:51:27.741Z,84.48
2018-03-24T02:53:53.625Z,84.09
2018-03-24T02:56:19.536Z,84.01
2018-03-24T02:58:45.391Z,84.20
2018-03-24T03:01:11.322Z,84.75
2018-03-24T03:03:37.190Z,84.40
2018-03-24T03:06:03.084Z,84.87
2018-03-24T03:08:29.082Z,84.09
2018-03-24T03:10:54.940Z,84.65
2018-03-24T03:13:20.807Z,84.77
2018-03-24T03:15:46.726Z,84.94
2018-03-24T03:18:12.585Z,85.02
2018-03-24T03:20:38.537Z,84.94
2018-03-24T03:23:04.430Z,84.65
2018-03-24T03:25:30.280Z,84.75
2018-03-24T03:27:56.190Z,84.44
2018-03-24T03:30:28.283Z,84.82
2018-03-24T03:32:54.270Z,84.82
2018-03-24T03:35:20.138Z,85.16
2018-03-24T03:37:46.035Z,84.74
2018-03-24T03:40:11.901Z,85.08
2018-03-24T03:42:37.748Z,84.94
2018-03-24T03:45:03.781Z,84.63
2018-03-24T03:47:29.653Z,84.79
2018-03-24T03:49:55.509Z,84.93
2018-03-24T03:52:21.387Z,84.59
2018-03-24T03:54:47.244Z,84.91
2018-03-24T03:57:13.180Z,84.22
2018-03-24T03:59:39.072Z,84.53
2018-03-24T04:02:04.928Z,84.61
2018-03-24T04:04:30.845Z,84.85
2018-03-24T04:06:56.732Z,85.16
2018-03-24T04:09:22.689Z,84.43
2018-03-24T04:11:48.543Z,85.04
2018-03-24T04:14:14.814Z,84.29
2018-03-24T04:16:40.732Z,85.05
2018-03-24T04:19:06.589Z,84.73
2018-03-24T04:21:32.579Z,84.84
2018-03-24T04:23:58.441Z,85.21
2018-03-24T04:26:24.301Z,85.12
2018-03-24T04:28:50.200Z,85.54
2018-03-24T04:31:16.120Z,85.28
2018-03-24T04:33:42.068Z,85.64
2018-03-24T04:36:07.958Z,85.40
2018-03-24T04:38:33.816Z,84.96
2018-03-24T04:40:59.677Z,85.52
2018-03-24T04:43:25.920Z,85.54
2018-03-24T04:45:51.862Z,85.66
2018-03-24T04:48:17.717Z,85.27
2018-03-24T04:50:43.602Z,85.48
2018-03-24T04:53:09.471Z,85.24
2018-03-24T04:55:35.321Z,85.05
2018-03-24T04:58:01.310Z,85.10
2018-03-24T05:00:27.903Z,85.16
2018-03-24T05:02:53.770Z,85.50
2018-03-24T05:05:19.697Z,85.00
2018-03-24T05:07:45.603Z,84.97
2018-03-24T05:10:11.552Z,85.33
2018-03-24T05:12:37.543Z,85.67
2018-03-24T05:15:03.418Z,85.31
2018-03-24T05:17:29.273Z,85.28
2018-03-24T05:19:55.213Z,85.42
2018-03-24T05:22:21.157Z,85.65
2018-03-24T05:24:47.057Z,85.41
2018-03-24T05:27:13.328Z,84.75
2018-03-24T05:29:39.198Z,85.32
2018-03-24T05:32:05.114Z,85.19
2018-03-24T05:34:31.154Z,85.35
2018-03-24T05:36:57.012Z,85.17
2018-03-24T05:39:22.866Z,84.28
2018-03-24T05:41:48.770Z,84.86
2018-03-24T05:44:14.685Z,84.76
2018-03-24T05:46:40.620Z,83.85
2018-03-24T05:49:06.504Z,84.02
2018-03-24T05:51:32.360Z,83.77
2018-03-24T05:53:58.208Z,84.61
2018-03-24T05:56:24.162Z,84.21
2018-03-24T05:58:50.097Z,84.57
2018-03-24T06:01:15.953Z,83.19
2018-03-24T06:03:41.857Z,84.57
2018-03-24T06:06:07.805Z,84.08
2018-03-24T06:08:33.745Z,83.54
2018-03-24T06:10:59.716Z,83.47
2018-03-24T06:13:25.631Z,84.31
2018-03-24T06:15:51.482Z,83.73
2018-03-24T06:18:17.378Z,82.89
2018-03-24T06:20:43.241Z,83.81
2018-03-24T06:23:09.137Z,83.82
2018-03-24T06:25:35.049Z,84.09
2018-03-24T06:28:00.921Z,83.81
2018-03-24T06:30:26.790Z,83.29
2018-03-24T06:32:52.705Z,82.35
2018-03-24T06:35:18.578Z,82.99
2018-03-24T06:37:44.427Z,82.99
2018-03-24T06:40:10.421Z,83.51
2018-03-24T06:42:36.286Z,83.51
2018-03-24T06:45:02.152Z,82.96
2018-03-24T06:47:28.058Z,82.71
2018-03-24T06:49:53.968Z,81.44
2018-03-24T06:52:19.830Z,82.14
2018-03-24T06:54:45.715Z,82.34
2018-03-24T06:57:11.564Z,82.36
2018-03-24T06:59:37.418Z,82.16
2018-03-24T07:02:03.392Z,82.39
2018-03-24T07:04:29.247Z,82.06
2018-03-24T07:06:55.125Z,81.78
2018-03-24T07:09:21.021Z,81.11
2018-03-24T07:11:46.933Z,81.82
2018-03-24T07:14:12.811Z,80.45
2018-03-24T07:16:38.721Z,80.72
2018-03-24T07:19:04.589Z,81.23
2018-03-24T07:21:30.440Z,81.06
2018-03-24T07:23:56.346Z,81.56
2018-03-24T07:26:22.201Z,81.01
2018-03-24T07:28:48.049Z,80.74
2018-03-24T07:31:13.965Z,81.05
2018-03-24T07:33:39.830Z,80.62
2018-03-24T07:36:05.703Z,80.01
2018-03-24T07:38:31.608Z,80.40
2018-03-24T07:40:57.465Z,79.58
2018-03-24T07:43:23.309Z,79.61
2018-03-24T07:45:49.197Z,79.12
2018-03-24T07:48:15.161Z,78.24
2018-03-24T07:50:41.044Z,78.82
2018-03-24T07:53:06.947Z,78.51
2018-03-24T07:55:32.810Z,78.29
2018-03-24T07:57:58.660Z,77.82
2018-03-24T08:00:24.560Z,78.28
2018-03-24T08:02:50.420Z,76.53
2018-03-24T08:05:16.277Z,76.34
2018-03-24T08:07:42.174Z,76.54
2018-03-24T08:10:08.090Z,76.59
2018-03-24T08:12:33.996Z,77.50
2018-03-24T08:14:59.912Z,76.16
2018-03-24T08:17:25.808Z,76.01
2018-03-24T08:19:51.742Z,74.90
2018-03-24T08:22:17.735Z,75.01
2018-03-24T08:24:43.602Z,75.21
2018-03-24T08:27:09.577Z,75.07
2018-03-24T08:29:35.573Z,73.95
2018-03-24T08:32:01.605Z,75.43
2018-03-24T08:34:27.504Z,75.00
2018-03-24T08:36:53.441Z,73.31
2018-03-24T08:39:19.317Z,72.76
2018-03-24T08:41:45.160Z,74.86
2018-03-24T08:44:11.045Z,73.65
2018-03-24T08:46:36.894Z,73.27
2018-03-24T08:49:02.750Z,74.30
2018-03-24T08:51:28.650Z,73.33
2018-03-24T08:53:54.609Z,74.04
2018-03-24T08:56:20.477Z,73.63
2018-03-24T08:58:46.385Z,72.95
2018-03-24T09:01:12.236Z,74.14
2018-03-24T09:03:38.096Z,72.34
2018-03-24T09:06:03.989Z,72.11
2018-03-24T09:08:29.840Z,72.61
2018-03-24T09:10:55.689Z,71.88
2018-03-24T09:13:21.717Z,72.79
2018-03-24T09:15:47.582Z,70.87
2018-03-24T09:18:13.461Z,70.35
2018-03-24T09:20:39.373Z,70.03
2018-03-24T09:23:05.228Z,70.99
2018-03-24T09:25:31.098Z,72.24
2018-03-24T09:27:57.039Z,70.59
2018-03-24T09:30:22.942Z,70.91
2018-03-24T09:32:48.810Z,70.29
2018-03-24T09:35:14.698Z,71.08
2018-03-24T09:37:40.557Z,69.36
2018-03-24T09:40:06.417Z,69.88
2018-03-24T09:42:32.334Z,69.25
2018-03-24T09:44:58.185Z,70.56
2018-03-24T09:47:24.077Z,70.22
2018-03-24T09:49:49.960Z,69.48
2018-03-24T09:52:15.843Z,68.90
2018-03-24T09:54:41.740Z,69.30
2018-03-24T09:57:07.629Z,68.43
2018-03-24T09:59:33.481Z,68.27
2018-03-24T10:01:59.326Z,70.48
2018-03-24T10:04:25.218Z,69.90
2018-03-24T10:06:51.078Z,68.75
2018-03-24T10:09:16.942Z,68.39
2018-03-24T10:11:42.854Z,67.15
2018-03-24T10:14:09.629Z,67.81
2018-03-24T10:16:35.481Z,67.39
2018-03-24T10:19:01.542Z,66.02
2018-03-24T10:24:32.426Z,65.76
2018-03-24T10:26:58.286Z,65.44
2018-03-24T10:29:24.132Z,66.60
2018-03-24T10:31:50.021Z,62.65
2018-03-24T10:34:15.874Z,62.89
2018-03-24T10:36:41.753Z,63.77
2018-03-24T10:39:07.633Z,62.66
2018-03-24T10:41:33.493Z,63.14
2018-03-24T10:43:59.353Z,64.57
2018-03-24T10:46:25.252Z,62.76
2018-03-24T10:48:51.121Z,61.29
2018-03-24T10:51:17.006Z,59.13
2018-03-24T10:53:42.934Z,59.37
2018-03-24T10:56:08.816Z,58.74
2018-03-24T10:58:34.781Z,58.80
2018-03-24T11:01:02.765Z,61.05
2018-03-24T11:03:28.616Z,60.94
2018-03-24T11:05:54.497Z,58.12
2018-03-24T11:08:20.415Z,60.00
2018-03-24T11:10:46.269Z,61.09
2018-03-24T11:13:12.111Z,59.65
2018-03-24T11:15:38.053Z,59.33
2018-03-24T11:18:03.917Z,61.38
2018-03-24T11:20:29.766Z,61.99
2018-03-24T11:22:55.658Z,61.07
2018-03-24T11:25:21.504Z,62.17
2018-03-24T11:27:47.405Z,59.91
2018-03-24T11:30:13.304Z,60.79
2018-03-24T11:32:39.160Z,58.18
2018-03-24T11:35:05.028Z,60.17
2018-03-24T11:37:30.920Z,59.94
2018-03-24T11:39:56.764Z,58.84
2018-03-24T11:42:22.698Z,60.77
2018-03-24T11:44:48.597Z,58.90
2018-03-24T11:47:14.461Z,60.59
2018-03-24T11:49:40.305Z,58.56
2018-03-24T11:52:06.202Z,58.79
2018-03-24T11:54:42.268Z,58.47
2018-03-24T11:57:08.174Z,58.15
2018-03-24T11:59:34.024Z,57.03
2018-03-24T12:01:59.876Z,57.73
2018-03-24T12:04:25.766Z,57.38
2018-03-24T12:06:51.619Z,55.98
2018-03-24T12:09:17.456Z,55.96
2018-03-24T12:11:43.357Z,55.31
2018-03-24T12:14:09.213Z,56.69
2018-03-24T12:16:35.110Z,55.72
2018-03-24T12:19:01.003Z,56.63
2018-03-24T12:21:26.875Z,58.62
2018-03-24T12:23:52.740Z,57.54
2018-03-24T12:26:18.628Z,56.19
2018-03-24T12:28:44.468Z,54.92
2018-03-24T12:31:10.372Z,54.75
2018-03-24T12:33:36.276Z,55.78
2018-03-24T12:36:02.139Z,56.04
2018-03-24T12:38:28.006Z,55.73
2018-03-24T12:40:53.905Z,55.48
2018-03-24T12:43:19.753Z,54.23
2018-03-24T12:45:45.593Z,54.96
2018-03-24T12:48:11.520Z,57.03
2018-03-24T12:50:37.365Z,55.78
2018-03-24T12:53:03.205Z,56.12
2018-03-24T12:55:29.106Z,55.44
2018-03-24T12:57:54.959Z,54.78
2018-03-24T13:00:20.805Z,56.03
2018-03-24T13:02:46.689Z,56.36
2018-03-24T13:05:12.541Z,54.56
2018-03-24T13:07:38.388Z,55.50
2018-03-24T13:10:04.285Z,54.54
2018-03-24T13:12:30.202Z,53.25
2018-03-24T13:14:56.061Z,53.75
2018-03-24T13:17:22.017Z,54.85
2018-03-24T13:19:47.885Z,56.45
2018-03-24T13:22:13.746Z,55.16
2018-03-24T13:24:39.643Z,53.08
2018-03-24T13:27:05.500Z,54.87
2018-03-24T13:29:31.349Z,54.95
2018-03-24T13:31:57.233Z,55.60
2018-03-24T13:34:23.089Z,55.20
2018-03-24T13:36:48.938Z,54.99
2018-03-24T13:39:14.823Z,55.87
2018-03-24T13:41:40.686Z,54.27
2018-03-24T13:44:06.549Z,54.06
2018-03-24T13:46:32.440Z,55.57
2018-03-24T13:48:58.306Z,54.93
2018-03-24T13:51:24.167Z,54.78
2018-03-24T13:53:50.055Z,55.11
2018-03-24T13:56:15.964Z,55.89
2018-03-24T13:58:41.836Z,56.15
2018-03-24T14:01:07.746Z,56.99
2018-03-24T14:03:33.623Z,55.98
2018-03-24T14:05:59.486Z,56.24
2018-03-24T14:08:25.414Z,56.92
2018-03-24T14:10:51.267Z,56.56
2018-03-24T14:13:17.117Z,57.50
2018-03-24T14:15:43.012Z,57.37
2018-03-24T14:18:08.939Z,57.19
2018-03-24T14:20:34.784Z,57.67
2018-03-24T14:23:00.682Z,56.37
2018-03-24T14:25:26.537Z,56.32
2018-03-24T14:27:52.394Z,56.03
2018-03-24T14:30:18.283Z,55.91
2018-03-24T14:32:44.137Z,57.00
2018-03-24T14:35:09.990Z,57.34
2018-03-24T14:37:35.893Z,57.34
2018-03-24T14:40:01.794Z,56.57
2018-03-24T14:42:27.656Z,56.49
2018-03-24T14:44:53.549Z,56.88
2018-03-24T14:47:19.397Z,56.99
2018-03-24T14:49:45.266Z,58.24
2018-03-24T14:52:11.160Z,57.49
2018-03-24T14:54:37.003Z,57.30
2018-03-24T14:57:02.865Z,57.76
2018-03-24T14:59:28.774Z,57.49
2018-03-24T15:01:54.637Z,57.90
2018-03-24T15:04:20.493Z,57.75
2018-03-24T15:06:46.408Z,56.99
2018-03-24T15:09:12.256Z,57.05
2018-03-24T15:11:38.160Z,56.77
2018-03-24T15:14:04.101Z,55.95
2018-03-24T15:16:29.961Z,56.79
2018-03-24T15:18:55.965Z,58.18
2018-03-24T15:21:21.894Z,58.73
2018-03-24T15:23:47.764Z,57.67
2018-03-24T15:26:13.625Z,58.53
2018-03-24T15:28:51.970Z,59.00
2018-03-24T15:31:30.294Z,56.55
2018-03-24T15:34:08.560Z,56.89
2018-03-24T15:36:40.495Z,57.98
2018-03-24T15:39:06.374Z,58.36
2018-03-24T15:41:32.269Z,58.39
2018-03-24T15:43:58.222Z,58.69
2018-03-24T15:46:24.101Z,58.09
2018-03-24T15:48:50.010Z,58.65
2018-03-24T15:51:15.890Z,59.12
2018-03-24T15:53:41.781Z,58.78
2018-03-24T15:56:07.730Z,58.66
2018-03-24T15:58:33.577Z,57.63
2018-03-24T16:00:59.527Z,58.94
2018-03-24T16:03:25.429Z,58.82
2018-03-24T16:05:51.319Z,58.29
2018-03-24T16:08:17.235Z,59.05
2018-03-24T16:10:43.177Z,58.71
2018-03-24T16:13:09.059Z,58.54
2018-03-24T16:15:34.949Z,58.72
2018-03-24T16:18:00.871Z,59.19
2018-03-24T16:20:26.882Z,59.00
2018-03-24T16:22:52.747Z,58.98
2018-03-24T16:25:18.669Z,59.35
2018-03-24T16:27:44.524Z,58.90
2018-03-24T16:30:10.384Z,59.65
2018-03-24T16:32:36.302Z,59.18
2018-03-24T16:35:02.199Z,59.73
2018-03-24T16:37:28.122Z,60.21
2018-03-24T16:39:54.095Z,60.51
2018-03-24T16:42:19.998Z,60.69
2018-03-24T16:44:45.875Z,60.88
2018-03-24T16:47:11.794Z,62.82
2018-03-24T16:49:37.861Z,64.52
2018-03-24T16:52:03.770Z,65.09
2018-03-24T16:54:29.695Z,65.83
2018-03-24T16:56:55.573Z,65.87
2018-03-24T16:59:21.508Z,67.77
2018-03-24T17:01:47.406Z,68.26
2018-03-24T17:04:13.253Z,68.85
2018-03-24T17:06:39.106Z,69.62
2018-03-24T17:09:05.009Z,69.05
2018-03-24T17:11:30.868Z,69.74
2018-03-24T17:13:56.733Z,70.66
2018-03-24T17:16:22.625Z,70.78
2018-03-24T17:18:48.521Z,71.41
2018-03-24T17:21:14.485Z,71.54
2018-03-24T17:23:40.430Z,72.40
2018-03-24T17:26:06.378Z,72.71
2018-03-24T17:28:32.250Z,72.84
2018-03-24T17:30:58.136Z,73.56
2018-03-24T17:33:24.010Z,73.81
2018-03-24T17:35:49.875Z,74.25
2018-03-24T17:38:15.797Z,74.37
2018-03-24T17:40:41.652Z,74.84
2018-03-24T17:43:07.512Z,75.42
2018-03-24T17:45:33.429Z,75.34
2018-03-24T17:47:59.280Z,75.73
2018-03-24T17:50:25.158Z,76.22
2018-03-24T17:52:51.098Z,76.95
2018-03-24T17:55:16.961Z,76.80
2018-03-24T17:57:42.825Z,76.54
2018-03-24T18:00:08.775Z,77.03
2018-03-24T18:02:34.624Z,77.80
2018-03-24T18:05:00.468Z,77.72
2018-03-24T18:07:26.358Z,77.46
2018-03-24T18:09:52.226Z,77.71
2018-03-24T18:12:18.085Z,78.15
2018-03-24T18:14:44.003Z,78.39
2018-03-24T18:17:09.867Z,78.12
2018-03-24T18:19:35.792Z,78.22
2018-03-24T18:22:01.781Z,78.34
2018-03-24T18:24:27.643Z,78.59
2018-03-24T18:26:53.500Z,78.48
2018-03-24T18:29:19.409Z,78.56
2018-03-24T18:31:45.279Z,78.84
2018-03-24T18:34:11.228Z,79.17
2018-03-24T18:36:37.137Z,79.34
2018-03-24T18:39:03.026Z,79.83
2018-03-24T18:41:28.868Z,80.47
2018-03-24T18:43:55.135Z,80.55
2018-03-24T18:46:21.121Z,80.59
2018-03-24T18:48:46.985Z,80.56
2018-03-24T18:51:12.930Z,80.77
2018-03-24T18:53:38.810Z,80.90
2018-03-24T18:56:04.687Z,81.00
2018-03-24T18:58:30.695Z,81.48
2018-03-24T19:00:56.565Z,81.52
2018-03-24T19:03:22.523Z,81.48
2018-03-24T19:05:48.514Z,81.74
2018-03-24T19:08:14.506Z,81.84
2018-03-24T19:10:40.447Z,81.96
2018-03-24T19:13:06.471Z,82.17
2018-03-24T19:15:32.305Z,82.32
2018-03-24T19:17:58.155Z,82.46
2018-03-24T19:20:24.062Z,82.22
2018-03-24T19:22:50.068Z,82.87
2018-03-24T19:25:15.973Z,82.51
2018-03-24T19:27:41.900Z,82.72
2018-03-24T19:30:07.756Z,82.55
2018-03-24T19:32:33.633Z,82.54
2018-03-24T19:34:59.637Z,82.41
2018-03-24T19:37:25.515Z,82.58
2018-03-24T19:39:51.747Z,82.87
2018-03-24T19:42:17.653Z,82.69
2018-03-24T19:44:43.609Z,82.27
2018-03-24T19:47:09.552Z,82.70
2018-03-24T19:49:35.484Z,82.92
2018-03-24T19:52:01.636Z,82.98
2018-03-24T19:54:27.506Z,82.89
2018-03-24T19:56:53.453Z,83.47
2018-03-24T19:59:19.410Z,83.37
2018-03-24T20:01:45.270Z,83.10
2018-03-24T20:04:11.225Z,82.96
2018-03-24T20:06:37.070Z,82.99
2018-03-24T20:09:03.269Z,83.23
2018-03-24T20:11:29.243Z,83.45
2018-03-24T20:13:55.089Z,83.61
2018-03-24T20:16:20.948Z,83.75
2018-03-24T20:18:46.841Z,83.59
2018-03-24T20:21:12.890Z,83.54
2018-03-24T20:23:38.846Z,83.88
2018-03-24T20:26:04.776Z,83.72
2018-03-24T20:28:30.641Z,84.07
2018-03-24T20:30:56.506Z,83.86
2018-03-24T20:33:22.667Z,83.80
2018-03-24T20:35:48.649Z,84.06
2018-03-24T20:38:14.513Z,84.21
2018-03-24T20:40:40.412Z,84.07
2018-03-24T20:43:06.281Z,84.28
2018-03-24T20:45:32.128Z,84.56
2018-03-24T20:47:58.217Z,84.75
2018-03-24T20:50:24.085Z,84.58
2018-03-24T20:52:49.946Z,84.59
2018-03-24T20:55:15.838Z,84.63
2018-03-24T20:57:41.795Z,84.62
2018-03-24T21:00:07.875Z,84.92
2018-03-24T21:02:33.789Z,84.75
2018-03-24T21:04:59.685Z,84.58
2018-03-24T21:07:25.537Z,85.10
2018-03-24T21:09:51.437Z,85.15
2018-03-24T21:12:18.373Z,84.84
2018-03-24T21:14:44.285Z,84.95
2018-03-24T21:17:10.197Z,85.58
2018-03-24T21:19:36.124Z,85.56
2018-03-24T21:22:01.990Z,85.49
2018-03-24T21:24:27.998Z,85.53
2018-03-24T21:26:53.926Z,85.86
2018-03-24T21:29:19.753Z,85.87
2018-03-24T21:31:45.662Z,85.28
2018-03-24T21:34:11.535Z,85.26
2018-03-24T21:36:37.484Z,84.86
2018-03-24T21:39:03.401Z,84.90
2018-03-24T21:41:29.261Z,84.70
2018-03-24T21:43:55.134Z,84.86
2018-03-24T21:46:21.195Z,85.02
2018-03-24T21:48:47.174Z,84.98
2018-03-24T21:51:13.051Z,85.50
2018-03-24T21:53:38.972Z,85.48
2018-03-24T21:56:04.841Z,85.65
2018-03-24T21:58:30.689Z,85.29
2018-03-24T22:00:56.668Z,85.14
2018-03-24T22:03:22.552Z,85.01
2018-03-24T22:05:48.409Z,85.59
2018-03-24T22:08:14.306Z,85.52
2018-03-24T22:10:40.165Z,85.58
2018-03-24T22:13:06.111Z,86.12
2018-03-24T22:15:32.156Z,86.37
2018-03-24T22:17:58.030Z,86.12
2018-03-24T22:20:23.922Z,85.81
2018-03-24T22:22:49.863Z,85.24
2018-03-24T22:25:15.837Z,85.78
2018-03-24T22:27:41.707Z,85.59
2018-03-24T22:30:07.602Z,85.61
2018-03-24T22:32:33.469Z,86.18
2018-03-24T22:34:59.320Z,86.36
2018-03-24T22:37:25.318Z,86.96
2018-03-24T22:39:51.191Z,86.98
2018-03-24T22:42:17.060Z,86.85
2018-03-24T22:44:42.958Z,86.29
2018-03-24T22:47:08.813Z,86.39
2018-03-24T22:49:34.752Z,86.28
2018-03-24T22:52:00.663Z,86.32
2018-03-24T22:54:26.507Z,86.12
2018-03-24T22:56:52.365Z,86.05
2018-03-24T22:59:18.278Z,86.08
2018-03-24T23:01:44.220Z,86.16
2018-03-24T23:04:10.077Z,85.76
2018-03-24T23:06:35.997Z,85.61
2018-03-24T23:09:01.886Z,85.99
2018-03-24T23:11:27.740Z,85.88
2018-03-24T23:13:53.738Z,85.97
2018-03-24T23:16:19.622Z,86.31
2018-03-24T23:18:45.595Z,86.61
2018-03-24T23:21:11.490Z,86.82
2018-03-24T23:23:37.337Z,87.11
2018-03-24T23:26:03.292Z,86.73
2018-03-24T23:28:29.205Z,86.78
2018-03-24T23:30:55.173Z,86.55
2018-03-24T23:33:21.027Z,86.38
2018-03-24T23:35:46.936Z,86.07
2018-03-24T23:38:12.865Z,86.45
2018-03-24T23:40:38.752Z,86.74
2018-03-24T23:43:04.665Z,87.00
2018-03-24T23:45:30.556Z,86.84
2018-03-24T23:47:56.413Z,86.60
2018-03-24T23:50:22.397Z,86.20
2018-03-24T23:52:48.252Z,86.00
2018-03-24T23:55:14.096Z,86.42
2018-03-24T23:57:40.017Z,86.72
